createdAt,value
2018-07-30T00:00:41.577Z,40.60
2018-07-30T00:01:41.620Z,36.70
2018-07-30T00:02:41.778Z,35.30
2018-07-30T00:03:41.633Z,36.20
2018-07-30T00:04:41.634Z,37.80
2018-07-30T00:05:41.649Z,37.40
2018-07-30T00:06:41.672Z,36.00
2018-07-30T00:07:41.786Z,34.90
2018-07-30T00:08:41.706Z,35.30
2018-07-30T00:09:41.725Z,36.50
2018-07-30T00:10:41.763Z,36.20
2018-07-30T00:11:41.770Z,37.30
2018-07-30T00:12:41.985Z,37.40
2018-07-30T00:13:41.796Z,37.00
2018-07-30T00:14:41.865Z,37.60
2018-07-30T00:15:41.844Z,37.30
2018-07-30T00:16:41.850Z,37.20
2018-07-30T00:17:41.909Z,38.40
2018-07-30T00:18:41.937Z,37.20
2018-07-30T00:19:41.895Z,36.50
2018-07-30T00:20:41.886Z,36.60
2018-07-30T00:21:41.930Z,37.10
2018-07-30T00:22:42.004Z,37.00
2018-07-30T00:23:42.054Z,35.50
2018-07-30T00:24:41.969Z,36.20
2018-07-30T00:25:41.975Z,35.60
2018-07-30T00:26:41.970Z,37.40
2018-07-30T00:27:42.107Z,37.40
2018-07-30T00:28:42.030Z,37.70
2018-07-30T00:29:42.066Z,38.40
2018-07-30T00:30:42.048Z,38.30
2018-07-30T00:31:42.065Z,37.90
2018-07-30T00:32:42.171Z,40.10
2018-07-30T00:33:42.095Z,38.80
2018-07-30T00:34:42.134Z,39.00
2018-07-30T00:35:42.118Z,37.60
2018-07-30T00:36:42.140Z,38.60
2018-07-30T00:37:42.239Z,39.70
2018-07-30T00:38:42.200Z,39.10
2018-07-30T00:39:42.200Z,37.30
2018-07-30T00:40:42.223Z,38.20
2018-07-30T00:41:42.197Z,38.40
2018-07-30T00:42:42.317Z,37.40
2018-07-30T00:43:42.280Z,36.70
2018-07-30T00:44:42.373Z,36.10
2018-07-30T00:45:42.273Z,35.80
2018-07-30T00:46:42.316Z,37.20
2018-07-30T00:47:42.307Z,37.10
2018-07-30T00:48:42.444Z,37.10
2018-07-30T00:49:42.337Z,36.70
2018-07-30T00:50:42.338Z,37.20
2018-07-30T00:51:42.359Z,36.30
2018-07-30T00:52:42.497Z,38.50
2018-07-30T00:53:42.413Z,37.80
2018-07-30T00:54:42.490Z,37.40
2018-07-30T00:55:42.419Z,36.10
2018-07-30T00:56:42.524Z,34.60
2018-07-30T00:57:42.465Z,35.70
2018-07-30T00:58:42.456Z,34.80
2018-07-30T00:59:42.518Z,34.90
2018-07-30T01:00:42.814Z,36.10
2018-07-30T01:01:42.517Z,34.90
2018-07-30T01:02:42.534Z,34.80
2018-07-30T01:03:42.545Z,36.00
2018-07-30T01:04:42.671Z,38.70
2018-07-30T01:05:42.674Z,37.40
2018-07-30T01:06:42.591Z,37.50
2018-07-30T01:07:42.675Z,36.00
2018-07-30T01:08:42.654Z,36.50
2018-07-30T01:09:42.640Z,37.90
2018-07-30T01:10:42.866Z,37.70
2018-07-30T01:11:42.739Z,37.30
2018-07-30T01:12:42.672Z,36.90
2018-07-30T01:13:42.758Z,36.50
2018-07-30T01:14:42.718Z,36.80
2018-07-30T01:15:42.837Z,35.80
2018-07-30T01:16:42.773Z,36.60
2018-07-30T01:17:42.758Z,38.00
2018-07-30T01:18:42.747Z,37.40
2018-07-30T01:19:42.782Z,35.80
2018-07-30T01:20:42.893Z,36.10
2018-07-30T01:21:42.923Z,35.90
2018-07-30T01:22:42.857Z,39.90
2018-07-30T01:23:42.830Z,37.30
2018-07-30T01:24:42.972Z,37.10
2018-07-30T01:25:42.959Z,36.30
2018-07-30T01:26:42.892Z,35.80
2018-07-30T01:27:42.894Z,38.40
2018-07-30T01:28:42.906Z,36.20
2018-07-30T01:29:42.945Z,37.50
2018-07-30T01:30:42.927Z,37.10
2018-07-30T01:31:43.067Z,38.30
2018-07-30T01:32:42.962Z,41.30
2018-07-30T01:33:43.009Z,38.40
2018-07-30T01:34:43.054Z,38.80
2018-07-30T01:35:43.052Z,37.80
2018-07-30T01:36:43.070Z,38.20
2018-07-30T01:37:43.070Z,37.80
2018-07-30T01:38:43.179Z,39.20
2018-07-30T01:39:43.135Z,39.10
2018-07-30T01:40:43.140Z,39.60
2018-07-30T01:41:43.214Z,39.90
2018-07-30T01:42:43.130Z,38.30
2018-07-30T01:43:43.116Z,37.40
2018-07-30T01:44:43.157Z,38.60
2018-07-30T01:45:43.190Z,38.00
2018-07-30T01:46:43.279Z,38.80
2018-07-30T01:47:43.228Z,40.00
2018-07-30T01:48:43.209Z,40.40
2018-07-30T01:49:43.216Z,38.70
2018-07-30T01:50:43.352Z,38.50
2018-07-30T01:51:43.357Z,37.30
2018-07-30T01:52:43.262Z,36.90
2018-07-30T01:53:43.397Z,39.20
2018-07-30T01:54:43.304Z,39.20
2018-07-30T01:55:43.303Z,39.00
2018-07-30T01:56:43.333Z,38.60
2018-07-30T01:57:43.445Z,39.90
2018-07-30T01:58:43.372Z,40.00
2018-07-30T01:59:43.400Z,40.50
2018-07-30T02:00:43.403Z,39.90
2018-07-30T02:01:43.387Z,39.10
2018-07-30T02:02:43.422Z,37.50
2018-07-30T02:03:43.572Z,38.10
2018-07-30T02:04:43.436Z,37.80
2018-07-30T02:05:43.468Z,37.90
2018-07-30T02:06:43.475Z,38.20
2018-07-30T02:07:43.603Z,39.50
2018-07-30T02:08:43.520Z,38.70
2018-07-30T02:09:43.620Z,38.60
2018-07-30T02:10:43.530Z,37.90
2018-07-30T02:11:43.556Z,37.80
2018-07-30T02:12:43.559Z,38.20
2018-07-30T02:13:43.583Z,38.80
2018-07-30T02:14:43.811Z,38.20
2018-07-30T02:15:43.601Z,39.70
2018-07-30T02:16:43.628Z,40.10
2018-07-30T02:17:43.636Z,41.40
2018-07-30T02:18:43.684Z,41.60
2018-07-30T02:19:43.861Z,42.90
2018-07-30T02:20:43.686Z,42.30
2018-07-30T02:21:43.696Z,42.60
2018-07-30T02:22:43.715Z,42.10
2018-07-30T02:23:43.708Z,40.20
2018-07-30T02:24:43.830Z,43.40
2018-07-30T02:25:43.752Z,47.60
2018-07-30T02:26:43.752Z,50.60
2018-07-30T02:27:43.785Z,54.30
2018-07-30T02:28:43.832Z,58.80
2018-07-30T02:29:43.863Z,61.30
2018-07-30T02:30:43.872Z,60.80
2018-07-30T02:31:43.827Z,60.40
2018-07-30T02:32:43.940Z,62.10
2018-07-30T02:33:43.871Z,58.90
2018-07-30T02:34:43.903Z,61.50
2018-07-30T02:35:43.914Z,62.10
2018-07-30T02:36:43.952Z,65.60
2018-07-30T02:37:43.932Z,65.80
2018-07-30T02:38:44.104Z,66.70
2018-07-30T02:39:43.944Z,66.20
2018-07-30T02:40:44.009Z,67.20
2018-07-30T02:41:43.979Z,68.90
2018-07-30T02:42:44.038Z,68.80
2018-07-30T02:43:44.112Z,65.60
2018-07-30T02:44:44.063Z,67.10
2018-07-30T02:45:44.049Z,66.90
2018-07-30T02:46:44.047Z,66.30
2018-07-30T02:47:44.061Z,68.20
2018-07-30T02:48:44.215Z,72.50
2018-07-30T02:49:44.104Z,68.80
2018-07-30T02:50:44.093Z,74.40
2018-07-30T02:51:44.132Z,73.70
2018-07-30T02:52:44.142Z,75.30
2018-07-30T02:53:44.295Z,74.00
2018-07-30T02:54:44.163Z,74.60
2018-07-30T02:55:44.166Z,74.40
2018-07-30T02:56:44.201Z,72.10
2018-07-30T02:57:44.282Z,72.10
2018-07-30T02:58:44.417Z,75.20
2018-07-30T02:59:44.355Z,76.60
2018-07-30T03:00:44.253Z,72.10
2018-07-30T03:01:44.256Z,72.60
2018-07-30T03:02:44.397Z,74.50
2018-07-30T03:03:44.429Z,73.00
2018-07-30T03:04:44.292Z,73.60
2018-07-30T03:05:44.321Z,69.90
2018-07-30T03:06:44.349Z,73.10
2018-07-30T03:07:44.347Z,74.50
2018-07-30T03:08:44.480Z,77.80
2018-07-30T03:09:44.565Z,79.80
2018-07-30T03:10:44.504Z,74.30
2018-07-30T03:11:44.408Z,75.00
2018-07-30T03:12:44.422Z,79.60
2018-07-30T03:13:44.431Z,77.50
2018-07-30T03:14:44.565Z,77.00
2018-07-30T03:15:44.546Z,79.00
2018-07-30T03:16:44.469Z,77.60
2018-07-30T03:17:44.486Z,79.40
2018-07-30T03:18:44.488Z,78.60
2018-07-30T03:19:44.520Z,75.60
2018-07-30T03:20:44.507Z,76.10
2018-07-30T03:21:44.791Z,75.60
2018-07-30T03:22:44.535Z,75.10
2018-07-30T03:23:44.573Z,76.70
2018-07-30T03:24:44.697Z,74.00
2018-07-30T03:25:44.588Z,70.60
2018-07-30T03:26:44.601Z,71.80
2018-07-30T03:27:44.754Z,72.70
2018-07-30T03:28:44.670Z,73.60
2018-07-30T03:29:44.655Z,75.30
2018-07-30T03:30:44.666Z,76.20
2018-07-30T03:31:44.676Z,75.90
2018-07-30T03:32:44.963Z,76.50
2018-07-30T03:33:44.696Z,77.30
2018-07-30T03:34:44.705Z,77.20
2018-07-30T03:35:44.726Z,74.70
2018-07-30T03:36:44.726Z,74.50
2018-07-30T03:37:44.850Z,76.00
2018-07-30T03:38:44.888Z,76.20
2018-07-30T03:39:44.781Z,76.10
2018-07-30T03:40:44.838Z,76.00
2018-07-30T03:41:44.937Z,78.80
2018-07-30T03:42:45.028Z,79.80
2018-07-30T03:43:44.828Z,80.50
2018-07-30T03:44:44.836Z,85.00
2018-07-30T03:45:44.876Z,84.10
2018-07-30T03:46:44.866Z,79.40
2018-07-30T03:47:45.110Z,79.60
2018-07-30T03:48:44.905Z,79.50
2018-07-30T03:49:44.927Z,81.80
2018-07-30T03:50:44.916Z,81.30
2018-07-30T03:51:45.066Z,82.50
2018-07-30T03:52:45.056Z,85.20
2018-07-30T03:53:44.961Z,83.90
2018-07-30T03:54:45.006Z,87.20
2018-07-30T03:55:45.117Z,86.20
2018-07-30T03:56:45.135Z,85.50
2018-07-30T03:57:45.245Z,85.20
2018-07-30T03:58:45.050Z,86.90
2018-07-30T03:59:45.060Z,85.70
2018-07-30T04:00:45.060Z,84.90
2018-07-30T04:01:45.138Z,85.90
2018-07-30T04:02:45.213Z,86.00
2018-07-30T04:03:45.216Z,87.80
2018-07-30T04:04:45.131Z,88.90
2018-07-30T04:05:45.135Z,86.20
2018-07-30T04:06:45.135Z,84.70
2018-07-30T04:07:45.288Z,87.10
2018-07-30T04:08:45.183Z,90.10
2018-07-30T04:09:45.278Z,85.50
2018-07-30T04:10:45.194Z,83.70
2018-07-30T04:11:45.338Z,83.50
2018-07-30T04:12:45.284Z,85.10
2018-07-30T04:13:45.359Z,83.90
2018-07-30T04:14:45.359Z,86.50
2018-07-30T04:15:45.311Z,85.00
2018-07-30T04:16:45.291Z,83.20
2018-07-30T04:17:45.301Z,83.10
2018-07-30T04:18:45.351Z,81.30
2018-07-30T04:19:45.328Z,80.40
2018-07-30T04:20:45.381Z,76.90
2018-07-30T04:21:45.345Z,76.50
2018-07-30T04:22:45.349Z,78.10
2018-07-30T04:23:45.375Z,79.50
2018-07-30T04:24:45.592Z,77.90
2018-07-30T04:25:45.397Z,76.20
2018-07-30T04:26:45.408Z,73.50
2018-07-30T04:27:45.426Z,69.80
2018-07-30T04:28:45.425Z,68.20
2018-07-30T04:29:45.657Z,70.30
2018-07-30T04:30:45.462Z,67.70
2018-07-30T04:31:45.604Z,68.90
2018-07-30T04:32:45.495Z,67.10
2018-07-30T04:33:45.506Z,66.80
2018-07-30T04:34:45.736Z,65.40
2018-07-30T04:35:45.538Z,68.10
2018-07-30T04:36:45.548Z,66.60
2018-07-30T04:37:45.555Z,65.10
2018-07-30T04:38:45.569Z,62.80
2018-07-30T04:39:45.910Z,61.70
2018-07-30T04:40:45.602Z,63.70
2018-07-30T04:41:45.643Z,61.10
2018-07-30T04:42:45.631Z,61.40
2018-07-30T04:43:45.680Z,62.20
2018-07-30T04:44:45.882Z,59.60
2018-07-30T04:45:45.786Z,59.90
2018-07-30T04:46:45.685Z,59.10
2018-07-30T04:47:45.816Z,58.30
2018-07-30T04:48:45.823Z,60.70
2018-07-30T04:49:45.920Z,60.10
2018-07-30T04:50:45.728Z,59.30
2018-07-30T04:51:45.757Z,59.20
2018-07-30T04:52:45.765Z,58.40
2018-07-30T04:53:45.760Z,59.60
2018-07-30T04:54:45.894Z,56.80
2018-07-30T04:55:45.794Z,58.20
2018-07-30T04:56:45.850Z,59.10
2018-07-30T04:57:45.821Z,61.20
2018-07-30T04:58:45.840Z,59.70
2018-07-30T04:59:46.094Z,57.50
2018-07-30T05:00:45.866Z,57.70
2018-07-30T05:01:45.995Z,56.80
2018-07-30T05:02:45.890Z,57.90
2018-07-30T05:03:45.938Z,56.90
2018-07-30T05:04:46.163Z,56.10
2018-07-30T05:05:45.936Z,57.40
2018-07-30T05:06:45.992Z,57.60
2018-07-30T05:07:45.966Z,55.70
2018-07-30T05:08:45.999Z,55.40
2018-07-30T05:09:46.180Z,54.90
2018-07-30T05:10:46.112Z,54.00
2018-07-30T05:11:46.017Z,53.40
2018-07-30T05:12:46.022Z,53.80
2018-07-30T05:13:46.040Z,54.60
2018-07-30T05:14:46.158Z,54.50
2018-07-30T05:15:46.177Z,54.00
2018-07-30T05:16:46.191Z,55.70
2018-07-30T05:17:46.075Z,56.40
2018-07-30T05:18:46.223Z,56.70
2018-07-30T05:19:46.116Z,55.70
2018-07-30T05:20:46.310Z,55.40
2018-07-30T05:21:46.185Z,56.40
2018-07-30T05:22:46.139Z,90.00
2018-07-30T05:23:46.163Z,107.30
2018-07-30T05:24:46.229Z,124.40
2018-07-30T05:25:46.387Z,110.70
2018-07-30T05:26:46.204Z,86.30
2018-07-30T05:27:46.213Z,80.40
2018-07-30T05:28:46.234Z,80.20
2018-07-30T05:29:46.245Z,78.50
2018-07-30T05:30:46.448Z,72.50
2018-07-30T05:31:46.396Z,69.80
2018-07-30T05:32:46.279Z,63.70
2018-07-30T05:33:46.328Z,64.00
2018-07-30T05:34:46.427Z,63.80
2018-07-30T05:35:46.550Z,62.20
2018-07-30T05:36:46.343Z,68.80
2018-07-30T05:37:46.351Z,66.00
2018-07-30T05:38:46.481Z,66.00
2018-07-30T05:39:46.415Z,71.70
2018-07-30T05:40:46.587Z,80.60
2018-07-30T05:41:46.408Z,87.40
2018-07-30T05:42:46.470Z,91.20
2018-07-30T05:43:46.436Z,89.10
2018-07-30T05:44:46.428Z,90.80
2018-07-30T05:45:46.639Z,82.80
2018-07-30T05:46:46.460Z,80.80
2018-07-30T05:47:46.467Z,75.60
2018-07-30T05:48:46.497Z,73.00
2018-07-30T05:49:46.499Z,68.20
2018-07-30T05:50:46.710Z,66.20
2018-07-30T05:51:46.537Z,67.60
2018-07-30T05:52:46.548Z,66.10
2018-07-30T05:53:46.672Z,67.10
2018-07-30T05:54:46.547Z,65.90
2018-07-30T05:55:46.897Z,68.00
2018-07-30T05:56:46.573Z,65.70
2018-07-30T05:57:46.721Z,65.70
2018-07-30T05:58:46.611Z,64.50
2018-07-30T05:59:46.684Z,63.90
2018-07-30T06:00:46.960Z,63.50
2018-07-30T06:01:46.650Z,64.10
2018-07-30T06:02:46.664Z,63.90
2018-07-30T06:03:46.799Z,65.20
2018-07-30T06:04:46.676Z,65.20
2018-07-30T06:05:46.915Z,62.40
2018-07-30T06:06:46.721Z,62.00
2018-07-30T06:07:46.730Z,61.50
2018-07-30T06:08:46.731Z,60.40
2018-07-30T06:09:46.912Z,61.90
2018-07-30T06:10:47.091Z,61.80
2018-07-30T06:11:46.781Z,59.20
2018-07-30T06:12:46.807Z,61.20
2018-07-30T06:13:46.931Z,59.90
2018-07-30T06:14:46.935Z,61.10
2018-07-30T06:15:47.155Z,59.30
2018-07-30T06:16:46.845Z,60.10
2018-07-30T06:17:46.863Z,58.70
2018-07-30T06:18:46.870Z,59.40
2018-07-30T06:19:46.884Z,60.10
2018-07-30T06:20:47.135Z,59.00
2018-07-30T06:21:47.028Z,58.90
2018-07-30T06:22:46.925Z,58.80
2018-07-30T06:23:47.052Z,59.10
2018-07-30T06:24:46.952Z,59.40
2018-07-30T06:25:46.964Z,58.60
2018-07-30T06:26:47.181Z,56.90
2018-07-30T06:27:46.980Z,57.90
2018-07-30T06:28:47.118Z,56.80
2018-07-30T06:29:47.008Z,56.90
2018-07-30T06:30:47.011Z,54.10
2018-07-30T06:31:47.056Z,55.00
2018-07-30T06:32:47.250Z,55.20
2018-07-30T06:33:47.050Z,54.40
2018-07-30T06:34:47.077Z,56.50
2018-07-30T06:35:47.087Z,54.90
2018-07-30T06:36:47.221Z,54.90
2018-07-30T06:37:47.231Z,54.40
2018-07-30T06:38:47.171Z,56.00
2018-07-30T06:39:47.254Z,56.10
2018-07-30T06:40:47.150Z,55.90
2018-07-30T06:41:47.170Z,56.30
2018-07-30T06:42:47.185Z,58.50
2018-07-30T06:43:47.188Z,56.70
2018-07-30T06:44:47.319Z,55.70
2018-07-30T06:45:47.334Z,56.70
2018-07-30T06:46:47.236Z,56.10
2018-07-30T06:47:47.357Z,56.90
2018-07-30T06:48:47.252Z,55.70
2018-07-30T06:49:47.254Z,55.60
2018-07-30T06:50:47.330Z,56.70
2018-07-30T06:51:47.412Z,56.20
2018-07-30T06:52:47.421Z,58.20
2018-07-30T06:53:47.435Z,56.60
2018-07-30T06:54:47.331Z,56.90
2018-07-30T06:55:47.463Z,58.40
2018-07-30T06:56:47.356Z,57.10
2018-07-30T06:57:47.455Z,57.30
2018-07-30T06:58:47.382Z,56.20
2018-07-30T06:59:47.396Z,58.20
2018-07-30T07:00:47.396Z,57.10
2018-07-30T07:01:47.536Z,56.50
2018-07-30T07:02:47.750Z,56.30
2018-07-30T07:03:47.566Z,56.90
2018-07-30T07:04:47.576Z,54.50
2018-07-30T07:05:47.467Z,56.00
2018-07-30T07:06:47.603Z,55.00
2018-07-30T07:07:47.499Z,55.60
2018-07-30T07:08:47.648Z,54.20
2018-07-30T07:09:47.643Z,53.60
2018-07-30T07:10:47.562Z,55.60
2018-07-30T07:11:47.549Z,56.00
2018-07-30T07:12:47.577Z,54.70
2018-07-30T07:13:47.670Z,54.00
2018-07-30T07:14:47.596Z,56.20
2018-07-30T07:15:47.591Z,57.50
2018-07-30T07:16:47.652Z,56.30
2018-07-30T07:17:47.624Z,56.60
2018-07-30T07:18:47.842Z,56.20
2018-07-30T07:19:47.683Z,55.10
2018-07-30T07:20:47.735Z,56.70
2018-07-30T07:21:47.668Z,58.80
2018-07-30T07:22:47.691Z,55.50
2018-07-30T07:23:47.805Z,56.90
2018-07-30T07:24:47.706Z,59.20
2018-07-30T07:25:47.741Z,58.80
2018-07-30T07:26:47.740Z,56.80
2018-07-30T07:27:47.876Z,56.80
2018-07-30T07:28:47.828Z,55.70
2018-07-30T07:29:47.788Z,55.60
2018-07-30T07:30:47.812Z,53.90
2018-07-30T07:31:48.005Z,55.30
2018-07-30T07:32:47.819Z,56.70
2018-07-30T07:33:47.832Z,57.30
2018-07-30T07:34:47.874Z,55.10
2018-07-30T07:35:47.845Z,56.30
2018-07-30T07:36:48.059Z,56.80
2018-07-30T07:37:47.887Z,56.90
2018-07-30T07:38:47.891Z,57.90
2018-07-30T07:39:47.903Z,58.10
2018-07-30T07:40:47.930Z,56.10
2018-07-30T07:41:48.074Z,58.40
2018-07-30T07:42:47.955Z,58.80
2018-07-30T07:43:48.088Z,56.10
2018-07-30T07:44:47.988Z,53.90
2018-07-30T07:45:47.979Z,54.70
2018-07-30T07:46:48.146Z,53.70
2018-07-30T07:47:48.023Z,57.90
2018-07-30T07:48:48.022Z,58.30
2018-07-30T07:49:48.040Z,60.00
2018-07-30T07:50:48.276Z,58.40
2018-07-30T07:51:48.168Z,57.80
2018-07-30T07:52:48.091Z,57.20
2018-07-30T07:53:48.103Z,55.70
2018-07-30T07:54:48.223Z,55.80
2018-07-30T07:55:48.119Z,55.80
2018-07-30T07:56:48.228Z,54.90
2018-07-30T07:57:48.139Z,53.70
2018-07-30T07:58:48.162Z,53.30
2018-07-30T07:59:48.286Z,53.20
2018-07-30T08:00:48.170Z,52.90
2018-07-30T08:01:48.328Z,53.70
2018-07-30T08:02:48.191Z,54.30
2018-07-30T08:03:48.226Z,52.10
2018-07-30T08:04:48.251Z,53.10
2018-07-30T08:05:48.371Z,52.90
2018-07-30T08:06:48.302Z,52.50
2018-07-30T08:07:48.372Z,53.20
2018-07-30T08:08:48.299Z,53.20
2018-07-30T08:09:48.453Z,53.10
2018-07-30T08:10:48.302Z,55.10
2018-07-30T08:11:48.442Z,54.90
2018-07-30T08:12:48.329Z,56.60
2018-07-30T08:13:48.665Z,56.40
2018-07-30T08:14:48.472Z,57.90
2018-07-30T08:15:48.490Z,57.50
2018-07-30T08:16:48.386Z,57.70
2018-07-30T08:17:48.404Z,57.70
2018-07-30T08:18:48.524Z,57.30
2018-07-30T08:19:48.521Z,57.40
2018-07-30T08:20:48.431Z,57.00
2018-07-30T08:21:48.451Z,55.60
2018-07-30T08:22:48.441Z,54.60
2018-07-30T08:23:48.462Z,54.00
2018-07-30T08:24:48.488Z,54.60
2018-07-30T08:25:48.692Z,55.30
2018-07-30T08:26:48.544Z,54.90
2018-07-30T08:27:48.510Z,52.60
2018-07-30T08:28:48.526Z,53.60
2018-07-30T08:29:48.663Z,54.50
2018-07-30T08:30:48.551Z,53.80
2018-07-30T08:31:48.934Z,54.90
2018-07-30T08:32:48.691Z,52.80
2018-07-30T08:33:48.589Z,53.60
2018-07-30T08:34:48.585Z,55.80
2018-07-30T08:35:48.612Z,57.30
2018-07-30T08:36:50.063Z,62.30
2018-07-30T08:37:48.631Z,62.50
2018-07-30T08:38:48.762Z,62.40
2018-07-30T08:39:48.669Z,59.30
2018-07-30T08:40:48.794Z,56.90
2018-07-30T08:41:48.788Z,61.80
2018-07-30T08:42:48.728Z,61.30
2018-07-30T08:43:48.749Z,60.10
2018-07-30T08:44:48.835Z,54.60
2018-07-30T08:45:48.733Z,57.50
2018-07-30T08:46:48.824Z,56.80
2018-07-30T08:47:48.756Z,55.80
2018-07-30T08:48:48.913Z,55.50
2018-07-30T08:49:48.775Z,55.90
2018-07-30T08:50:48.786Z,58.60
2018-07-30T08:51:49.043Z,63.10
2018-07-30T08:52:48.810Z,64.10
2018-07-30T08:53:48.854Z,70.60
2018-07-30T08:54:48.854Z,72.20
2018-07-30T08:55:48.882Z,73.90
2018-07-30T08:56:48.945Z,76.00
2018-07-30T08:57:48.861Z,72.90
2018-07-30T08:58:48.872Z,72.50
2018-07-30T08:59:48.884Z,70.60
2018-07-30T09:00:48.916Z,69.10
2018-07-30T09:01:49.128Z,69.50
2018-07-30T09:02:48.932Z,66.80
2018-07-30T09:03:49.059Z,66.80
2018-07-30T09:04:48.994Z,66.40
2018-07-30T09:05:48.963Z,64.40
2018-07-30T09:06:49.107Z,67.70
2018-07-30T09:07:49.113Z,67.20
2018-07-30T09:08:48.998Z,68.90
2018-07-30T09:09:49.136Z,66.50
2018-07-30T09:10:49.019Z,67.30
2018-07-30T09:11:49.044Z,64.10
2018-07-30T09:12:49.296Z,64.00
2018-07-30T09:13:49.070Z,63.40
2018-07-30T09:14:49.076Z,63.20
2018-07-30T09:15:49.072Z,66.80
2018-07-30T09:16:49.093Z,66.90
2018-07-30T09:17:49.095Z,68.80
2018-07-30T09:18:49.220Z,68.10
2018-07-30T09:19:49.131Z,68.50
2018-07-30T09:20:49.147Z,66.70
2018-07-30T09:21:49.161Z,66.60
2018-07-30T09:22:49.159Z,67.60
2018-07-30T09:23:49.176Z,69.50
2018-07-30T09:24:49.560Z,67.30
2018-07-30T09:25:49.321Z,64.40
2018-07-30T09:26:49.265Z,66.40
2018-07-30T09:27:49.267Z,67.60
2018-07-30T09:28:49.246Z,64.20
2018-07-30T09:29:49.262Z,64.90
2018-07-30T09:30:49.372Z,65.00
2018-07-30T09:31:49.389Z,64.20
2018-07-30T09:32:49.308Z,60.10
2018-07-30T09:33:49.297Z,61.10
2018-07-30T09:34:49.426Z,63.80
2018-07-30T09:35:49.423Z,61.20
2018-07-30T09:36:49.455Z,60.80
2018-07-30T09:37:49.390Z,62.10
2018-07-30T09:38:49.430Z,60.10
2018-07-30T09:39:49.375Z,59.60
2018-07-30T09:40:49.378Z,59.60
2018-07-30T09:41:49.488Z,61.30
2018-07-30T09:42:49.407Z,58.00
2018-07-30T09:43:49.419Z,57.80
2018-07-30T09:44:49.437Z,59.90
2018-07-30T09:45:49.555Z,60.50
2018-07-30T09:46:49.668Z,57.20
2018-07-30T09:47:49.507Z,59.10
2018-07-30T09:48:49.488Z,59.60
2018-07-30T09:49:49.475Z,58.20
2018-07-30T09:50:49.487Z,57.90
2018-07-30T09:51:49.608Z,57.90
2018-07-30T09:52:49.521Z,55.80
2018-07-30T09:53:49.567Z,58.00
2018-07-30T09:54:49.666Z,56.80
2018-07-30T09:55:49.571Z,60.60
2018-07-30T09:56:49.669Z,60.90
2018-07-30T09:57:49.577Z,59.80
2018-07-30T09:58:49.594Z,57.80
2018-07-30T09:59:49.723Z,58.60
2018-07-30T10:00:49.620Z,59.10
2018-07-30T10:01:49.718Z,59.20
2018-07-30T10:02:49.654Z,61.30
2018-07-30T10:03:49.675Z,60.00
2018-07-30T10:04:49.649Z,60.70
2018-07-30T10:05:49.738Z,58.60
2018-07-30T10:06:49.779Z,59.20
2018-07-30T10:07:49.821Z,58.90
2018-07-30T10:08:49.722Z,58.60
2018-07-30T10:09:49.727Z,60.60
2018-07-30T10:10:49.743Z,59.60
2018-07-30T10:11:49.859Z,60.30
2018-07-30T10:12:49.764Z,58.30
2018-07-30T10:13:49.771Z,57.90
2018-07-30T10:14:49.816Z,56.50
2018-07-30T10:15:49.786Z,57.50
2018-07-30T10:16:49.918Z,56.60
2018-07-30T10:17:49.845Z,56.00
2018-07-30T10:18:49.874Z,58.70
2018-07-30T10:19:49.843Z,57.50
2018-07-30T10:20:49.876Z,56.00
2018-07-30T10:21:49.971Z,56.60
2018-07-30T10:22:49.896Z,55.40
2018-07-30T10:23:49.935Z,57.00
2018-07-30T10:24:49.909Z,56.30
2018-07-30T10:25:49.930Z,55.10
2018-07-30T10:26:50.073Z,53.80
2018-07-30T10:27:49.989Z,54.80
2018-07-30T10:28:49.996Z,56.60
2018-07-30T10:29:50.088Z,56.40
2018-07-30T10:30:50.070Z,50.70
2018-07-30T10:31:50.140Z,53.80
2018-07-30T10:32:49.995Z,57.90
2018-07-30T10:33:50.032Z,56.20
2018-07-30T10:34:50.032Z,56.00
2018-07-30T10:35:50.163Z,54.40
2018-07-30T10:36:50.097Z,52.60
2018-07-30T10:37:50.137Z,51.40
2018-07-30T10:38:50.067Z,52.60
2018-07-30T10:39:50.122Z,54.20
2018-07-30T10:40:50.112Z,52.80
2018-07-30T10:41:50.285Z,52.30
2018-07-30T10:42:50.257Z,53.80
2018-07-30T10:43:50.158Z,52.50
2018-07-30T10:44:50.167Z,51.00
2018-07-30T10:45:50.211Z,48.90
2018-07-30T10:46:50.284Z,48.70
2018-07-30T10:47:50.214Z,47.90
2018-07-30T10:48:50.236Z,44.80
2018-07-30T10:49:50.250Z,44.80
2018-07-30T10:50:50.241Z,43.80
2018-07-30T10:51:50.430Z,41.90
2018-07-30T10:52:50.257Z,39.20
2018-07-30T10:53:50.319Z,35.90
2018-07-30T10:54:50.294Z,34.90
2018-07-30T10:55:50.307Z,32.60
2018-07-30T10:56:50.448Z,31.40
2018-07-30T10:57:50.316Z,33.00
2018-07-30T10:58:50.331Z,32.00
2018-07-30T10:59:50.360Z,35.00
2018-07-30T11:01:50.556Z,33.60
2018-07-30T11:02:50.396Z,33.50
2018-07-30T11:03:50.506Z,34.00
2018-07-30T11:04:50.465Z,37.10
2018-07-30T11:05:50.446Z,36.50
2018-07-30T11:06:50.454Z,38.40
2018-07-30T11:07:50.623Z,37.40
2018-07-30T11:08:50.694Z,37.90
2018-07-30T11:09:50.491Z,35.50
2018-07-30T11:10:50.619Z,33.00
2018-07-30T11:11:50.511Z,34.10
2018-07-30T11:12:50.650Z,34.60
2018-07-30T11:13:50.633Z,34.00
2018-07-30T11:14:50.734Z,33.20
2018-07-30T11:15:50.568Z,32.40
2018-07-30T11:16:50.594Z,31.20
2018-07-30T11:17:50.600Z,30.60
2018-07-30T11:18:54.493Z,29.10
2018-07-30T11:19:50.618Z,30.60
2018-07-30T11:20:50.664Z,28.60
2018-07-30T11:21:50.688Z,29.10
2018-07-30T11:22:50.663Z,28.20
2018-07-30T11:23:50.689Z,27.50
2018-07-30T11:25:50.703Z,26.80
2018-07-30T11:27:50.896Z,26.70
2018-07-30T11:28:50.746Z,27.30
2018-07-30T11:29:50.866Z,27.10
2018-07-30T11:30:50.817Z,27.00
2018-07-30T11:31:50.826Z,26.00
2018-07-30T11:32:50.796Z,24.80
2018-07-30T11:33:50.828Z,25.20
2018-07-30T11:34:51.165Z,25.60
2018-07-30T11:35:50.852Z,24.90
2018-07-30T11:36:50.857Z,25.00
2018-07-30T11:37:50.999Z,26.90
2018-07-30T11:38:50.900Z,24.50
2018-07-30T11:39:50.915Z,25.40
2018-07-30T11:40:51.147Z,24.40
2018-07-30T11:41:50.944Z,22.00
2018-07-30T11:42:50.967Z,25.00
2018-07-30T11:43:51.013Z,24.00
2018-07-30T11:44:51.099Z,21.70
2018-07-30T11:45:51.098Z,24.40
2018-07-30T11:46:51.023Z,22.20
2018-07-30T11:47:51.037Z,22.80
2018-07-30T11:48:51.220Z,23.90
2018-07-30T11:49:51.070Z,22.20
2018-07-30T11:50:51.166Z,23.80
2018-07-30T11:51:51.207Z,22.70
2018-07-30T11:52:51.104Z,23.10
2018-07-30T11:53:51.114Z,23.70
2018-07-30T11:54:51.135Z,22.60
2018-07-30T11:55:51.260Z,22.50
2018-07-30T11:56:51.203Z,22.40
2018-07-30T11:57:51.298Z,24.10
2018-07-30T11:58:51.183Z,23.50
2018-07-30T11:59:51.212Z,22.80
2018-07-30T12:00:51.340Z,23.40
2018-07-30T12:01:51.362Z,23.00
2018-07-30T12:02:51.243Z,22.60
2018-07-30T12:03:51.258Z,24.00
2018-07-30T12:04:51.283Z,24.50
2018-07-30T12:05:51.398Z,24.50
2018-07-30T12:06:51.303Z,24.00
2018-07-30T12:07:51.354Z,23.70
2018-07-30T12:08:51.357Z,24.30
2018-07-30T12:09:51.362Z,23.00
2018-07-30T12:10:51.476Z,23.10
2018-07-30T12:11:51.406Z,22.90
2018-07-30T12:12:51.393Z,24.40
2018-07-30T12:13:51.408Z,22.90
2018-07-30T12:14:51.419Z,23.90
2018-07-30T12:15:51.531Z,22.90
2018-07-30T12:16:51.582Z,23.70
2018-07-30T12:17:51.483Z,24.10
2018-07-30T12:18:51.497Z,24.50
2018-07-30T12:19:51.623Z,26.10
2018-07-30T12:20:51.739Z,24.80
2018-07-30T12:21:51.715Z,26.30
2018-07-30T12:22:51.561Z,26.50
2018-07-30T12:23:51.604Z,25.80
2018-07-30T12:24:51.585Z,25.40
2018-07-30T12:25:51.697Z,26.40
2018-07-30T12:26:51.596Z,26.10
2018-07-30T12:27:51.630Z,26.00
2018-07-30T12:28:51.640Z,24.90
2018-07-30T12:29:51.706Z,23.50
2018-07-30T12:30:51.887Z,25.00
2018-07-30T12:31:51.690Z,24.50
2018-07-30T12:32:51.708Z,24.70
2018-07-30T12:33:51.715Z,24.30
2018-07-30T12:34:51.742Z,26.30
2018-07-30T12:35:51.964Z,25.00
2018-07-30T12:36:51.759Z,23.70
2018-07-30T12:37:51.776Z,23.20
2018-07-30T12:38:51.792Z,23.10
2018-07-30T12:39:51.797Z,22.80
2018-07-30T12:40:51.824Z,22.90
2018-07-30T12:41:51.960Z,22.30
2018-07-30T12:42:51.972Z,22.80
2018-07-30T12:43:51.894Z,22.00
2018-07-30T12:44:51.947Z,23.20
2018-07-30T12:45:51.939Z,22.20
2018-07-30T12:46:52.092Z,23.10
2018-07-30T12:47:52.058Z,22.40
2018-07-30T12:48:52.009Z,21.50
2018-07-30T12:49:51.959Z,23.40
2018-07-30T12:50:52.000Z,23.20
2018-07-30T12:51:52.010Z,25.60
2018-07-30T12:52:52.015Z,26.70
2018-07-30T12:53:52.148Z,30.00
2018-07-30T12:54:52.093Z,30.20
2018-07-30T12:55:52.075Z,29.20